Time;durP1;ratioP1;P1;durP2;ratioP2;P2;SDS_P1;SDS_P2;PMS_P1;PMS_P2;Temp;Humidity;BMP_temperature;BMP_pressure;BME280_temperature;BME280_humidity;BME280_pressure;Samples;Min_cycle;Max_cycle;Signal;HPM_P1;HPM_P2
2021/12/25 00:00:57;;;;;;;0.52;0.52;;;19.90;38.50;;;23.49;25.58;100740.31;5097888;28;20104;-77
2021/12/25 00:03:23;;;;;;;0.75;0.60;;;19.90;38.50;;;23.53;25.49;100748.94;5097695;28;20069;-78
2021/12/25 00:05:52;;;;;;;0.50;0.50;;;19.90;38.50;;;23.52;25.61;100747.22;5095536;28;20052;-77
2021/12/25 00:08:27;;;;;;;0.60;0.60;;;19.90;38.50;;;23.49;25.68;100761.66;5097747;28;20115;-78
2021/12/25 00:10:55;;;;;;;0.50;0.50;;;19.90;38.50;;;23.50;25.75;100765.16;5095973;28;20135;-77
2021/12/25 00:13:21;;;;;;;0.95;0.57;;;19.90;38.60;;;23.52;25.76;100765.06;5080779;28;20048;-77
2021/12/25 00:15:48;;;;;;;0.50;0.50;;;19.80;38.50;;;23.51;25.56;100760.72;5097268;28;20052;-77
2021/12/25 00:18:15;;;;;;;0.60;0.60;;;19.80;38.50;;;23.51;25.39;100769.56;5080461;28;20470;-77
2021/12/25 00:20:41;;;;;;;0.50;0.50;;;19.80;38.50;;;23.52;25.51;100776.56;5097507;28;20050;-77
2021/12/25 00:23:08;;;;;;;0.60;0.60;;;19.90;38.60;;;23.53;25.58;100788.13;5097323;28;20040;-77
2021/12/25 00:25:53;;;;;;;0.70;0.70;;;19.80;38.60;;;23.49;25.60;100777.66;5080283;28;20054;-77
2021/12/25 00:28:47;;;;;;;0.50;0.50;;;19.80;38.60;;;23.50;25.53;100789.19;5099681;28;20089;-77
2021/12/25 00:31:24;;;;;;;0.50;0.50;;;19.90;38.60;;;23.49;25.51;100791.00;5083658;28;20032;-77
2021/12/25 00:34:01;;;;;;;0.47;0.47;;;19.90;38.60;;;23.53;25.59;100798.78;5099766;28;20036;-77
2021/12/25 00:36:27;;;;;;;0.85;0.80;;;19.90;38.60;;;23.52;25.56;100803.25;5081848;28;20142;-77
2021/12/25 00:38:54;;;;;;;0.60;0.60;;;19.90;39.10;;;23.51;25.72;100804.25;5094895;28;20055;-77
2021/12/25 00:41:23;;;;;;;0.50;0.50;;;19.80;38.50;;;23.51;25.68;100809.59;5097128;28;20437;-77
2021/12/25 00:43:50;;;;;;;0.50;0.50;;;19.80;38.60;;;23.53;25.71;100812.13;5080283;28;20056;-77
2021/12/25 00:46:15;;;;;;;0.50;0.50;;;19.90;38.60;;;23.52;25.63;100811.28;5096910;28;20051;-77
2021/12/25 00:48:42;;;;;;;0.52;0.52;;;19.80;38.60;;;23.49;25.73;100803.50;5115201;28;20092;-77
2021/12/25 00:51:07;;;;;;;0.60;0.60;;;19.90;38.60;;;23.51;25.58;100809.59;5079056;28;20055;-77
2021/12/25 00:53:33;;;;;;;0.60;0.60;;;19.90;38.60;;;23.52;25.62;100813.09;5080164;28;20484;-77
2021/12/25 00:55:59;;;;;;;0.45;0.45;;;19.90;38.60;;;23.49;25.61;100820.38;5097135;28;20070;-77
2021/12/25 00:58:25;;;;;;;0.60;0.60;;;19.90;38.60;;;23.52;25.61;100823.78;5115267;28;20145;-77
2021/12/25 01:00:51;;;;;;;0.50;0.50;;;19.80;38.60;;;23.51;25.51;100827.44;5079788;28;20584;-77
2021/12/25 01:03:17;;;;;;;0.43;0.43;;;19.90;38.70;;;23.50;25.66;100834.56;5063678;28;20130;-77
2021/12/25 01:05:43;;;;;;;0.50;0.50;;;19.80;38.60;;;23.52;25.50;100834.44;5096763;28;20463;-77
2021/12/25 01:08:10;;;;;;;0.52;0.52;;;19.90;38.60;;;23.51;25.54;100836.28;5079226;28;20130;-78
2021/12/25 01:10:37;;;;;;;0.50;0.50;;;19.80;38.60;;;23.49;25.61;100839.06;5079922;28;20043;-77
2021/12/25 01:13:10;;;;;;;0.50;0.50;;;19.90;38.60;;;23.49;25.76;100846.22;5096555;28;20043;-77
2021/12/25 01:27:21;;;;;;;0.47;0.47;;;19.80;38.60;;;23.50;25.72;100855.91;5080579;28;20113;-77
2021/12/25 01:30:04;;;;;;;0.73;0.60;;;19.80;38.60;;;23.51;25.54;100851.44;5083804;28;20054;-77
2021/12/25 01:36:12;;;;;;;0.50;0.50;;;19.80;38.60;;;23.48;25.65;100855.16;5099295;28;20050;-77
2021/12/25 01:49:59;;;;;;;0.60;0.60;;;19.80;38.60;;;23.48;25.80;100877.38;5098725;28;20052;-78
2021/12/25 01:52:28;;;;;;;0.50;0.50;;;19.80;38.60;;;23.49;25.61;100873.75;5077553;28;20605;-77
2021/12/25 01:54:58;;;;;;;0.68;0.60;;;19.80;38.60;;;23.47;25.63;100864.13;5113577;28;20058;-78
2021/12/25 01:57:24;;;;;;;1.15;0.77;;;19.80;38.60;;;23.46;25.66;100865.13;5077410;28;20491;-78
2021/12/25 01:59:50;;;;;;;0.40;0.40;;;19.80;38.70;;;23.46;25.83;100865.94;5093225;28;20048;-78
2021/12/25 02:02:16;;;;;;;0.50;0.50;;;19.80;38.60;;;23.49;25.75;100875.56;5060226;28;20519;-78
2021/12/25 02:04:42;;;;;;;0.50;0.50;;;19.80;38.60;;;23.48;25.60;100880.03;5077194;28;20059;-78
2021/12/25 02:07:08;;;;;;;0.50;0.50;;;19.80;38.60;;;23.48;25.49;100882.69;5078504;28;20054;-78
2021/12/25 02:09:34;;;;;;;0.77;0.70;;;19.80;38.60;;;23.47;25.74;100882.81;5078372;28;20052;-78
2021/12/25 02:12:00;;;;;;;0.50;0.50;;;19.80;38.60;;;23.46;25.63;100876.63;5078737;28;20047;-77
2021/12/25 02:14:28;;;;;;;0.32;0.32;;;19.80;38.60;;;23.47;25.48;100885.47;5078572;28;20081;-78
2021/12/25 02:17:00;;;;;;;0.45;0.45;;;19.80;38.60;;;23.49;25.59;100897.75;5078330;28;20047;-78
2021/12/25 02:19:42;;;;;;;0.55;0.55;;;19.80;38.60;;;23.48;25.73;100892.53;5076334;28;20048;-77
2021/12/25 02:22:09;;;;;;;0.50;0.50;;;19.80;38.60;;;23.49;25.86;100894.25;5079178;28;20082;-77
2021/12/25 02:24:36;;;;;;;0.55;0.55;;;19.80;38.60;;;23.48;25.57;100889.88;5077600;28;20553;-77
2021/12/25 02:27:04;;;;;;;0.50;0.50;;;19.80;38.60;;;23.49;25.75;100894.25;5076895;28;20052;-77
2021/12/25 02:29:30;;;;;;;0.50;0.50;;;19.80;38.70;;;23.45;25.58;100890.06;5078417;28;20058;-77
2021/12/25 02:31:57;;;;;;;0.30;0.30;;;19.70;38.60;;;23.45;25.67;100882.91;5078111;28;20048;-77
2021/12/25 02:34:24;;;;;;;0.50;0.50;;;19.80;38.70;;;23.46;25.80;100889.13;5077927;28;20387;-77
2021/12/25 02:36:50;;;;;;;0.55;0.55;;;19.80;38.70;;;23.47;25.69;100894.34;5095275;28;20112;-77
2021/12/25 02:39:16;;;;;;;0.55;0.55;;;19.80;38.70;;;23.47;25.57;100896.16;5075836;28;20047;-77
2021/12/25 02:41:43;;;;;;;0.40;0.40;;;19.80;38.70;;;23.46;25.73;100900.66;5094866;28;20063;-77
2021/12/25 02:44:09;;;;;;;0.60;0.60;;;19.80;38.70;;;23.48;25.86;100901.38;5076824;28;20139;-77
2021/12/25 02:46:43;;;;;;;0.50;0.50;;;19.80;38.70;;;23.50;25.64;100898.59;5078971;28;20040;-77
2021/12/25 02:49:12;;;;;;;0.55;0.55;;;19.80;38.70;;;23.43;25.68;100892.84;5061089;28;20043;-77
2021/12/25 02:51:43;;;;;;;0.52;0.47;;;19.80;38.70;;;23.45;25.72;100903.41;5078035;28;20043;-77
2021/12/25 02:54:09;;;;;;;0.50;0.50;;;19.80;38.70;;;23.45;25.73;100901.59;5094949;28;20387;-77
2021/12/25 02:56:35;;;;;;;0.50;0.50;;;19.80;38.70;;;23.47;25.48;100909.50;5095305;28;20047;-77
2021/12/25 02:59:00;;;;;;;0.50;0.50;;;19.80;38.70;;;23.46;25.59;100907.81;5077601;28;20066;-78
2021/12/25 03:01:26;;;;;;;0.57;0.57;;;19.80;38.70;;;23.45;25.85;100898.94;5061096;28;20054;-77
2021/12/25 03:03:52;;;;;;;0.40;0.40;;;19.80;38.70;;;23.45;25.49;100906.09;5094631;28;20046;-77
2021/12/25 03:06:18;;;;;;;0.65;0.65;;;19.80;38.70;;;23.46;25.48;100919.31;5060983;28;20048;-77
2021/12/25 03:08:44;;;;;;;0.52;0.52;;;19.80;38.70;;;23.44;25.57;100907.91;5077684;28;20044;-78
2021/12/25 03:11:14;;;;;;;0.70;0.70;;;19.80;38.70;;;23.45;25.73;100911.44;5076610;28;20048;-77
2021/12/25 03:16:14;;;;;;;0.50;0.50;;;19.80;38.70;;;23.47;25.64;100928.19;5081944;28;20048;-77
2021/12/25 03:18:50;;;;;;;0.43;0.43;;;19.80;38.60;;;23.43;25.68;100921.38;5081385;28;20048;-77
2021/12/25 03:21:18;;;;;;;0.57;0.57;;;19.80;38.60;;;23.47;25.79;100933.50;5081583;28;20097;-77
2021/12/25 03:23:47;;;;;;;0.50;0.50;;;19.80;38.70;;;23.47;25.72;100930.84;5098283;28;20062;-78
2021/12/25 03:26:14;;;;;;;0.55;0.43;;;19.80;38.70;;;23.48;25.70;100935.22;5097083;28;20051;-78
2021/12/25 03:28:43;;;;;;;0.50;0.50;;;19.80;38.60;;;23.45;25.73;100935.44;5079407;28;20048;-78
2021/12/25 03:31:16;;;;;;;0.50;0.50;;;19.80;38.60;;;23.45;25.59;100938.13;5064920;28;20035;-77
2021/12/25 03:33:50;;;;;;;0.47;0.47;;;19.80;39.20;;;23.46;25.63;100939.84;5082105;28;20075;-78
2021/12/25 03:36:16;;;;;;;0.45;0.45;;;19.80;38.60;;;23.49;25.60;100935.13;5081628;28;20043;-77
2021/12/25 03:38:44;;;;;;;0.50;0.50;;;19.90;38.60;;;23.50;25.79;100943.97;5079356;28;20411;-78
2021/12/25 03:41:10;;;;;;;0.50;0.50;;;19.90;38.60;;;23.52;25.76;100942.03;5081226;28;20077;-77
2021/12/25 03:43:39;;;;;;;0.30;0.30;;;19.90;39.10;;;23.51;25.78;100940.34;5098204;28;20047;-78
2021/12/25 03:46:09;;;;;;;0.40;0.40;;;19.90;38.60;;;23.52;25.88;100935.84;5063110;28;20052;-78
2021/12/25 03:59:32;;;;;;;0.55;0.50;;;19.90;38.50;;;23.54;25.71;100939.25;5083701;28;20044;-78
2021/12/25 04:02:04;;;;;;;0.68;0.68;;;20.00;38.50;;;23.54;25.77;100942.81;5078795;28;20048;-77
2021/12/25 04:04:36;;;;;;;0.40;0.40;;;19.90;38.50;;;23.55;25.68;100949.00;5079764;28;20432;-78
2021/12/25 04:07:17;;;;;;;0.68;0.60;;;19.90;38.50;;;23.57;25.75;100955.06;5062912;28;20040;-78
2021/12/25 04:09:42;;;;;;;0.65;0.65;;;20.00;38.50;;;23.57;25.52;100945.25;5082095;28;20052;-77
2021/12/25 04:12:13;;;;;;;0.55;0.50;;;20.00;38.50;;;23.60;25.64;100954.84;5079577;28;20438;-77
2021/12/25 04:14:40;;;;;;;0.60;0.47;;;20.00;38.40;;;23.60;25.59;100945.00;5079273;28;20044;-77
2021/12/25 04:17:07;;;;;;;0.50;0.50;;;20.00;38.40;;;23.61;25.70;100951.22;5095266;28;20047;-78
2021/12/25 04:19:35;;;;;;;0.60;0.60;;;20.00;38.40;;;23.57;25.78;100945.25;5080371;28;20047;-77
2021/12/25 04:22:07;;;;;;;0.50;0.50;;;20.00;38.40;;;23.62;25.63;100953.78;5080332;28;20043;-78
2021/12/25 04:24:39;;;;;;;0.50;0.50;;;20.00;38.40;;;23.60;25.68;100945.00;5081151;28;20142;-78
2021/12/25 04:27:11;;;;;;;0.50;0.50;;;20.00;38.40;;;23.60;25.59;100942.34;5095524;28;20048;-78
2021/12/25 04:29:46;;;;;;;0.50;0.50;;;20.00;38.40;;;23.62;25.62;100944.91;5097994;28;20071;-78
2021/12/25 04:32:42;;;;;;;0.40;0.40;;;20.00;38.40;;;23.65;25.45;100955.38;5081342;28;20406;-78
2021/12/25 05:03:01;;;;;;;0.50;0.50;;;20.10;38.30;;;23.68;25.62;100973.84;5083776;28;20078;-78
2021/12/25 05:05:39;;;;;;;0.50;0.50;;;20.10;38.30;;;23.70;25.52;100968.38;5081519;28;20071;-78
2021/12/25 05:08:16;;;;;;;0.50;0.50;;;20.10;38.30;;;23.70;25.60;100976.41;5096921;28;20097;-78
2021/12/25 05:10:41;;;;;;;0.43;0.40;;;20.10;38.30;;;23.70;25.74;100977.25;5096446;28;20047;-78
2021/12/25 05:13:07;;;;;;;0.40;0.40;;;20.10;38.30;;;23.68;25.58;100974.69;5079847;28;20379;-77
2021/12/25 05:15:33;;;;;;;0.40;0.40;;;20.10;38.30;;;23.64;25.39;100962.53;5079150;28;20539;-77
2021/12/25 05:17:59;;;;;;;0.45;0.45;;;20.10;38.30;;;23.71;25.46;100970.94;5096620;28;20044;-77
2021/12/25 05:20:25;;;;;;;0.47;0.47;;;20.10;38.30;;;23.74;25.71;100972.53;5062791;28;20050;-78
2021/12/25 05:22:51;;;;;;;0.50;0.50;;;20.10;38.30;;;23.71;25.22;100970.94;5078673;28;20392;-77
2021/12/25 05:25:17;;;;;;;0.40;0.40;;;20.10;38.30;;;23.70;25.63;100969.22;5079366;28;20051;-77
2021/12/25 05:27:53;;;;;;;0.40;0.40;;;20.10;38.30;;;23.72;25.47;100969.13;5080136;28;20190;-78
2021/12/25 05:30:19;;;;;;;0.40;0.40;;;20.10;38.30;;;23.70;25.61;100969.22;5114160;28;20048;-77
2021/12/25 05:33:04;;;;;;;0.40;0.40;;;20.10;38.20;;;23.75;25.56;100974.25;5095678;28;20054;-78
2021/12/25 05:35:52;;;;;;;0.40;0.40;;;20.10;38.30;;;23.71;25.54;100967.44;5082027;28;20075;-77
2021/12/25 05:38:34;;;;;;;0.40;0.40;;;20.10;38.80;;;23.74;25.53;100976.06;5078902;28;20044;-78
2021/12/25 05:41:14;;;;;;;0.65;0.55;;;20.10;38.30;;;23.74;25.64;100977.88;5081083;28;20103;-77
2021/12/25 05:43:40;;;;;;;0.40;0.40;;;20.10;38.30;;;23.68;25.68;100974.69;5078863;28;20060;-78
2021/12/25 05:46:06;;;;;;;0.50;0.50;;;20.10;38.30;;;23.70;25.47;100971.91;5077929;28;20050;-78
2021/12/25 05:48:37;;;;;;;0.70;0.70;;;20.10;38.30;;;23.74;25.43;100984.09;5095518;28;20048;-78
2021/12/25 05:51:30;;;;;;;0.40;0.40;;;20.10;38.20;;;23.75;25.44;100990.28;5108519;28;20047;-78
2021/12/25 05:54:15;;;;;;;0.40;0.40;;;20.10;38.20;;;23.76;25.48;100989.31;5098579;28;20047;-77
2021/12/25 05:57:01;;;;;;;0.40;0.40;;;20.10;38.20;;;23.74;25.49;100977.88;5098069;28;20490;-77
2021/12/25 05:59:40;;;;;;;0.40;0.40;;;20.10;38.20;;;23.74;25.47;100983.22;5097531;28;20055;-78
2021/12/25 06:02:18;;;;;;;0.40;0.40;;;20.10;38.20;;;23.71;25.35;100986.97;5094202;28;20051;-78
2021/12/25 06:04:45;;;;;;;0.40;0.40;;;20.10;38.20;;;23.75;25.45;100992.94;5078275;28;20055;-77
2021/12/25 06:07:10;;;;;;;0.50;0.50;;;20.10;38.20;;;23.71;25.39;100984.31;5060742;28;20526;-78
2021/12/25 06:09:36;;;;;;;0.50;0.47;;;20.10;38.20;;;23.73;25.38;100998.38;5076671;28;20075;-78
2021/12/25 06:12:07;;;;;;;0.40;0.40;;;20.10;38.20;;;23.72;25.44;100988.66;5095465;28;20043;-77
2021/12/25 06:14:33;;;;;;;0.47;0.47;;;20.10;38.30;;;23.72;25.58;100987.81;5078702;28;20058;-78
2021/12/25 06:17:09;;;;;;;0.70;0.70;;;20.10;38.30;;;23.73;25.48;100989.53;5078072;28;20079;-78
2021/12/25 06:19:39;;;;;;;0.40;0.40;;;20.10;38.20;;;23.73;25.33;100990.38;5078221;28;20063;-78
2021/12/25 06:22:20;;;;;;;0.60;0.60;;;20.10;38.30;;;23.73;25.40;100998.38;5080597;28;20048;-78
2021/12/25 06:24:58;;;;;;;0.50;0.50;;;20.10;38.20;;;23.74;25.46;101005.44;5094604;28;20051;-77
2021/12/25 06:27:46;;;;;;;0.40;0.40;;;20.10;38.20;;;23.77;25.58;101007.03;5095496;28;20077;-77
2021/12/25 06:30:26;;;;;;;0.50;0.50;;;20.10;38.20;;;23.73;25.40;101009.06;5097590;28;20046;-77
2021/12/25 06:33:15;;;;;;;0.50;0.50;;;20.00;38.20;;;23.77;25.65;101007.03;5082013;28;20520;-77
2021/12/25 06:35:59;;;;;;;0.57;0.50;;;20.10;38.30;;;23.73;25.45;101005.56;5082304;28;20050;-78
2021/12/25 06:38:43;;;;;;;0.40;0.40;;;20.00;38.20;;;23.73;25.51;101003.72;5080674;28;20047;-78
2021/12/25 06:41:14;;;;;;;0.50;0.50;;;20.10;38.30;;;23.77;25.49;101013.25;5078838;28;20483;-78
2021/12/25 06:43:41;;;;;;;0.52;0.52;;;20.10;38.20;;;23.73;25.46;101010.88;5078590;28;20395;-78
2021/12/25 06:46:08;;;;;;;0.50;0.50;;;20.10;38.20;;;23.73;25.48;101014.41;5077851;28;20570;-78
2021/12/25 06:48:34;;;;;;;0.50;0.50;;;20.10;38.20;;;23.70;25.43;101014.63;5077996;28;20052;-78
2021/12/25 06:51:09;;;;;;;0.80;0.60;;;20.10;38.20;;;23.72;25.51;101015.34;5094849;28;20080;-78
2021/12/25 06:53:42;;;;;;;0.40;0.40;;;20.00;38.20;;;23.75;25.47;101027.66;5077892;28;20079;-78
2021/12/25 06:56:31;;;;;;;0.50;0.50;;;20.00;38.30;;;23.69;25.36;101018.28;5067458;28;20038;-78
2021/12/25 06:59:02;;;;;;;;;;;20.00;38.20;;;23.81;25.39;101014.72;5078970;28;20456;-77
2021/12/25 07:01:31;;;;;;;0.40;0.40;;;20.10;38.20;;;23.77;25.29;101017.69;5077240;28;19922;-78
2021/12/25 07:03:57;;;;;;;0.40;0.40;;;20.10;38.20;;;23.74;25.29;101010.78;5061210;28;20048;-77
2021/12/25 07:06:42;;;;;;;0.47;0.47;;;20.00;38.20;;;23.75;25.34;101024.97;5083182;28;20062;-78
2021/12/25 07:09:23;;;;;;;0.40;0.40;;;20.00;38.20;;;23.72;25.35;101011.84;5097268;28;20113;-78
2021/12/25 07:12:08;;;;;;;0.35;0.35;;;20.00;38.20;;;23.70;25.35;101017.28;5097764;28;20058;-78
2021/12/25 07:15:05;;;;;;;0.60;0.60;;;20.10;38.60;;;23.72;25.57;101023.38;5082406;28;20036;-78
2021/12/25 07:17:41;;;;;;;0.40;0.40;;;20.10;38.20;;;23.74;25.51;101033.94;5079036;28;20050;-78
2021/12/25 07:20:17;;;;;;;0.50;0.50;;;20.10;38.20;;;23.72;25.30;101030.53;5078126;28;20052;-78
2021/12/25 07:23:04;;;;;;;0.40;0.40;;;20.00;38.20;;;23.71;25.26;101032.34;5081126;28;20035;-78
2021/12/25 07:26:00;;;;;;;0.40;0.40;;;20.10;38.20;;;23.73;25.56;101037.59;5081510;28;20035;-78
2021/12/25 07:28:55;;;;;;;0.50;0.50;;;20.10;38.20;;;23.73;25.52;101037.59;5037472;28;20057;-78
2021/12/25 07:31:21;;;;;;;0.50;0.50;;;20.10;38.20;;;23.74;25.51;101049.97;5077522;28;20093;-78
2021/12/25 07:33:47;;;;;;;0.50;0.50;;;20.10;38.20;;;23.72;25.55;101052.72;5094318;28;20101;-78
2021/12/25 07:36:14;;;;;;;0.40;0.40;;;20.10;38.20;;;23.73;25.31;101051.78;5094153;28;20560;-78
2021/12/25 07:38:40;;;;;;;0.50;0.50;;;20.10;38.10;;;23.70;25.48;101048.47;5094321;28;20077;-78
2021/12/25 07:41:06;;;;;;;0.45;0.45;;;20.10;38.20;;;23.70;25.52;101052.00;5075936;28;20050;-78
2021/12/25 07:43:32;;;;;;;0.50;0.50;;;20.10;38.20;;;23.70;25.48;101054.66;5094533;28;20047;-78
2021/12/25 07:46:11;;;;;;;0.60;0.60;;;20.00;38.10;;;23.74;25.39;101061.50;5079622;28;20055;-78
2021/12/25 07:48:37;;;;;;;0.50;0.50;;;20.10;38.20;;;23.73;25.33;101049.13;5092482;28;20080;-78
2021/12/25 07:51:03;;;;;;;0.50;0.50;;;20.10;38.10;;;23.76;25.54;101061.41;5077159;28;20044;-77
2021/12/25 07:53:33;;;;;;;0.50;0.50;;;20.10;38.20;;;23.70;25.56;101054.66;5093893;28;20047;-78
2021/12/25 07:55:59;;;;;;;0.50;0.50;;;20.10;38.20;;;23.74;25.34;101068.66;5093118;28;20043;-77
2021/12/25 07:58:25;;;;;;;0.40;0.40;;;20.10;38.10;;;23.75;25.42;101067.69;5093876;28;20043;-78
2021/12/25 08:00:51;;;;;;;0.63;0.60;;;20.10;38.60;;;23.72;25.26;101063.41;5095274;28;20549;-77
2021/12/25 08:03:17;;;;;;;0.50;0.50;;;20.10;38.10;;;23.75;25.45;101057.00;5115513;28;20052;-77
2021/12/25 08:05:44;;;;;;;0.50;0.50;;;20.10;38.00;;;23.77;25.29;101061.31;5097360;28;20055;-78
2021/12/25 08:08:11;;;;;;;0.52;0.52;;;20.20;38.10;;;23.78;25.39;101071.00;5097430;28;20052;-77
2021/12/25 08:10:39;;;;;;;0.95;0.50;;;20.20;38.00;;;23.79;25.30;101080.72;5097627;28;20055;-77
2021/12/25 08:13:05;;;;;;;0.47;0.47;;;20.20;38.00;;;23.78;25.36;101079.00;5115431;28;20067;-78
2021/12/25 08:15:31;;;;;;;0.40;0.40;;;20.20;38.00;;;23.77;25.28;101079.13;5063496;28;20140;-78
2021/12/25 08:18:00;;;;;;;0.50;0.50;;;20.20;38.00;;;23.82;25.33;101093.03;5080608;28;20047;-78
2021/12/25 08:20:33;;;;;;;0.55;0.55;;;20.20;38.00;;;23.78;25.11;101081.69;5115175;28;20437;-77
2021/12/25 08:23:17;;;;;;;0.50;0.50;;;20.20;38.00;;;23.79;25.44;101083.41;5100045;28;20054;-78
2021/12/25 08:26:04;;;;;;;0.50;0.50;;;20.20;38.00;;;23.80;25.46;101089.59;5085814;28;20510;-78
2021/12/25 08:28:33;;;;;;;0.50;0.50;;;20.10;37.90;;;23.81;25.50;101089.47;5080836;28;20129;-78
2021/12/25 08:31:37;;;;;;;0.68;0.68;;;20.20;37.90;;;23.83;25.33;101082.25;5102761;28;20478;-78
2021/12/25 08:34:38;;;;;;;0.55;0.55;;;20.20;37.90;;;23.82;25.41;101071.66;5056296;28;20048;-78
2021/12/25 08:37:14;;;;;;;0.40;0.40;;;20.20;37.90;;;23.84;25.18;101078.63;5080254;28;20160;-77
2021/12/25 08:39:40;;;;;;;0.47;0.47;;;20.20;37.90;;;23.83;25.21;101084.91;5077567;28;20062;-78
2021/12/25 08:42:09;;;;;;;0.38;0.38;;;20.20;37.90;;;23.83;25.43;101090.25;5096872;28;20085;-78
2021/12/25 08:47:11;;;;;;;0.40;0.40;;;20.20;38.00;;;23.82;25.19;101088.56;5078978;28;20506;-77
2021/12/25 08:49:40;;;;;;;0.47;0.43;;;20.20;38.00;;;23.81;25.33;101086.81;5078939;28;20088;-78
2021/12/25 08:52:10;;;;;;;0.60;0.60;;;20.20;37.90;;;23.79;25.33;101072.72;5078621;28;20411;-78
2021/12/25 08:54:37;;;;;;;0.50;0.50;;;20.20;37.90;;;23.81;25.16;101067.28;5114746;28;20052;-77
2021/12/25 08:57:05;;;;;;;0.50;0.50;;;20.20;37.90;;;23.83;25.10;101073.38;5094889;28;20055;-78
2021/12/25 08:59:31;;;;;;;0.40;0.40;;;20.20;37.90;;;23.84;25.25;101096.47;5096257;28;20047;-78
2021/12/25 09:01:57;;;;;;;0.40;0.40;;;20.20;37.90;;;23.83;25.24;101095.59;5079597;28;20071;-78
2021/12/25 09:04:23;;;;;;;0.47;0.47;;;20.20;37.90;;;23.84;25.38;101091.13;5096392;28;20048;-78
2021/12/25 09:06:48;;;;;;;0.40;0.40;;;20.20;37.90;;;23.84;25.25;101091.97;5096429;28;20035;-78
2021/12/25 09:09:14;;;;;;;0.40;0.40;;;20.20;37.90;;;23.84;25.20;101110.66;5095817;28;20044;-78
2021/12/25 09:11:41;;;;;;;0.45;0.45;;;20.20;37.90;;;23.85;25.28;101119.50;5114726;28;20048;-78
2021/12/25 09:14:07;;;;;;;0.32;0.32;;;20.20;37.80;;;23.86;25.29;101113.22;5079116;28;20051;-78
2021/12/25 09:16:33;;;;;;;0.40;0.40;;;20.20;37.80;;;23.88;25.48;101116.63;5096211;28;20048;-78
2021/12/25 09:19:00;;;;;;;0.60;0.60;;;20.20;37.80;;;23.85;25.07;101107.00;5095266;28;20054;-78
2021/12/25 09:21:26;;;;;;;0.50;0.50;;;20.20;37.80;;;23.85;25.42;101099.00;5079366;28;20067;-78
2021/12/25 09:23:52;;;;;;;0.40;0.40;;;20.20;37.80;;;23.88;25.17;101105.94;5096251;28;20048;-77
2021/12/25 09:26:18;;;;;;;0.40;0.40;;;20.20;37.80;;;23.86;25.36;101108.72;5096388;28;20510;-78
2021/12/25 09:28:46;;;;;;;0.60;0.55;;;20.20;37.80;;;23.86;25.26;101115.91;5095852;28;20124;-77
2021/12/25 09:31:12;;;;;;;0.63;0.60;;;20.30;37.80;;;23.86;25.12;101115.91;5096256;28;20054;-78
2021/12/25 09:33:38;;;;;;;0.40;0.40;;;20.20;37.80;;;23.88;25.12;101123.81;5079400;28;20039;-77
2021/12/25 09:36:06;;;;;;;0.40;0.40;;;20.30;37.80;;;23.86;25.19;101111.41;5114431;28;20101;-78
2021/12/25 09:38:33;;;;;;;0.50;0.50;;;20.20;37.80;;;23.85;25.18;101119.50;5078872;28;20066;-78
2021/12/25 09:41:00;;;;;;;0.50;0.50;;;20.20;37.80;;;23.86;25.13;101119.41;5078819;28;20395;-78
2021/12/25 09:43:27;;;;;;;0.50;0.50;;;20.30;37.90;;;23.86;25.22;101108.72;5095647;28;20048;-77
2021/12/25 09:45:53;;;;;;;0.50;0.50;;;20.30;37.80;;;23.92;25.04;101125.28;5062144;28;20115;-78
2021/12/25 09:48:20;;;;;;;0.45;0.45;;;20.30;37.80;;;23.91;25.05;101134.28;5078705;28;20131;-78
2021/12/25 09:50:46;;;;;;;0.40;0.40;;;20.30;37.80;;;23.90;25.03;101135.22;5078231;28;20479;-78
2021/12/25 09:53:17;;;;;;;0.40;0.40;;;20.30;37.70;;;23.92;25.00;101136.81;5096033;28;20076;-78
2021/12/25 09:55:43;;;;;;;0.40;0.40;;;20.30;37.70;;;23.91;25.15;101128.94;5077066;28;20492;-78
2021/12/25 09:58:09;;;;;;;0.52;0.52;;;20.30;37.70;;;23.90;25.18;101129.88;5078658;28;20043;-78
2021/12/25 10:00:41;;;;;;;0.60;0.60;;;20.30;37.70;;;23.91;25.21;101132.44;5095850;28;20048;-77
2021/12/25 10:03:07;;;;;;;0.40;0.40;;;20.30;37.70;;;23.94;25.09;101129.56;5095596;28;20439;-78
2021/12/25 10:05:41;;;;;;;0.50;0.50;;;20.30;38.20;;;23.93;25.08;101132.34;5095381;28;20047;-78
2021/12/25 10:08:20;;;;;;;0.40;0.40;;;20.30;37.70;;;23.92;25.25;101133.28;5095616;28;20218;-78
2021/12/25 10:11:01;;;;;;;0.50;0.50;;;20.30;37.70;;;23.92;24.92;101135.97;5078435;28;20050;-78
2021/12/25 10:13:32;;;;;;;0.50;0.50;;;20.30;37.60;;;23.94;25.18;101134.03;5095477;28;20055;-78
2021/12/25 10:16:20;;;;;;;0.60;0.60;;;20.30;37.60;;;23.94;25.23;101140.25;5113691;28;20130;-78
2021/12/25 10:18:47;;;;;;;1.02;0.60;;;20.30;37.60;;;23.96;25.01;101129.47;5078410;28;20406;-78
2021/12/25 10:21:28;;;;;;;0.40;0.40;;;20.30;37.60;;;23.93;25.00;101124.34;5093389;28;20044;-78
2021/12/25 10:24:26;;;;;;;0.40;0.40;;;20.30;37.60;;;23.95;25.08;101131.25;5061959;28;20433;-78
2021/12/25 10:26:53;;;;;;;0.47;0.47;;;20.40;37.70;;;23.94;25.03;101136.69;5078962;28;20048;-78
2021/12/25 10:29:27;;;;;;;0.40;0.40;;;20.30;37.60;;;23.95;25.13;101133.94;5093851;28;20052;-78
2021/12/25 10:31:59;;;;;;;0.60;0.60;;;20.30;37.60;;;23.96;25.05;101134.81;5095131;28;20105;-77
2021/12/25 10:34:29;;;;;;;0.50;0.50;;;20.30;37.60;;;23.96;25.02;101119.63;5113317;28;20077;-78
2021/12/25 10:37:10;;;;;;;0.50;0.50;;;20.40;37.70;;;23.94;25.15;101129.56;5095313;28;20062;-78
2021/12/25 10:39:36;;;;;;;0.50;0.50;;;20.30;37.60;;;23.98;25.06;101120.34;5093658;28;20056;-77
2021/12/25 10:42:16;;;;;;;0.47;0.45;;;20.40;37.60;;;23.94;25.18;101120.69;5093238;28;20194;-76
2021/12/25 10:44:47;;;;;;;0.65;0.50;;;20.40;37.60;;;23.98;25.06;101115.00;5094733;28;20092;-77
2021/12/25 10:47:21;;;;;;;;;;;20.40;37.60;;;24.11;24.94;101122.19;5095079;28;20051;-76
2021/12/25 10:49:51;;;;;;;0.43;0.43;;;20.40;37.60;;;24.01;24.93;101121.97;5094599;28;19916;-76
2021/12/25 10:52:39;;;;;;;0.40;0.40;;;20.40;37.60;;;23.98;25.01;101122.19;5094500;28;20055;-76
2021/12/25 10:55:23;;;;;;;0.50;0.50;;;20.40;37.50;;;23.99;25.01;101124.75;5095100;28;20044;-76
2021/12/25 10:57:52;;;;;;;0.50;0.50;;;20.40;37.50;;;24.02;24.93;101134.34;5095149;28;20044;-76
2021/12/25 11:00:21;;;;;;;0.40;0.40;;;20.40;37.50;;;24.02;24.98;101121.88;5094858;28;20408;-77
2021/12/25 11:03:06;;;;;;;0.40;0.40;;;20.40;37.50;;;23.97;25.05;101116.00;5094980;28;20054;-76
2021/12/25 11:05:43;;;;;;;0.50;0.50;;;20.40;37.50;;;23.99;25.09;101116.75;5094440;28;20055;-77
2021/12/25 11:08:14;;;;;;;0.40;0.40;;;20.40;37.50;;;23.99;24.88;101111.41;5077854;28;20093;-77
2021/12/25 11:10:53;;;;;;;0.43;0.43;;;20.40;37.50;;;24.03;25.09;101120.03;5093183;28;20100;-77
2021/12/25 11:13:48;;;;;;;0.40;0.40;;;20.40;37.50;;;24.03;25.15;101109.34;5077870;28;20402;-77
2021/12/25 11:16:27;;;;;;;0.50;0.50;;;20.40;37.50;;;23.99;24.95;101105.19;5077652;28;20491;-77
2021/12/25 11:19:27;;;;;;;0.57;0.57;;;20.40;37.50;;;23.99;24.93;101106.06;5090675;28;20097;-77
2021/12/25 11:21:54;;;;;;;0.50;0.50;;;20.40;37.50;;;24.02;25.00;101107.63;5096597;28;20477;-77
2021/12/25 11:24:37;;;;;;;0.40;0.40;;;20.40;37.50;;;23.98;25.03;101103.50;5112617;28;20460;-77
2021/12/25 11:27:06;;;;;;;0.40;0.40;;;20.40;37.50;;;24.02;25.00;101100.50;5062206;28;20062;-77
2021/12/25 11:29:36;;;;;;;0.40;0.40;;;20.40;37.50;;;24.00;25.15;101097.06;5093349;28;20113;-77
2021/12/25 11:32:06;;;;;;;0.57;0.40;;;20.40;37.50;;;24.01;24.98;101093.44;5076742;28;20052;-77
2021/12/25 11:34:31;;;;;;;0.50;0.50;;;20.40;37.50;;;24.04;24.91;101100.41;5077180;28;20434;-77
2021/12/25 11:37:00;;;;;;;0.43;0.43;;;20.40;37.50;;;24.01;24.89;101103.28;5097158;28;20043;-77
2021/12/25 11:39:28;;;;;;;0.65;0.43;;;20.40;37.50;;;24.01;24.83;101100.59;5095862;28;20040;-77
2021/12/25 11:42:01;;;;;;;0.50;0.50;;;20.40;37.40;;;24.03;25.07;101107.53;5080688;28;20096;-77